sensor_id;sensor_type;location;lat;lon;timestamp;P1;durP1;ratioP1;P2;durP2;ratioP2
24173;SDS011;12324;48.146;11.502;2023-06-04T00:02:05;9.38;;;4.43;;
24173;SDS011;12324;48.146;11.502;2023-06-04T00:04:33;10.50;;;4.13;;
24173;SDS011;12324;48.146;11.502;2023-06-04T00:07:00;7.70;;;3.70;;
24173;SDS011;12324;48.146;11.502;2023-06-04T00:09:27;8.02;;;3.40;;
24173;SDS011;12324;48.146;11.502;2023-06-04T00:11:54;7.82;;;3.30;;
24173;SDS011;12324;48.146;11.502;2023-06-04T00:14:22;9.50;;;3.95;;
24173;SDS011;12324;48.146;11.502;2023-06-04T00:16:49;8.68;;;3.67;;
24173;SDS011;12324;48.146;11.502;2023-06-04T00:19:17;13.90;;;4.45;;
24173;SDS011;12324;48.146;11.502;2023-06-04T00:21:44;8.70;;;3.80;;
24173;SDS011;12324;48.146;11.502;2023-06-04T00:24:12;7.97;;;3.40;;
24173;SDS011;12324;48.146;11.502;2023-06-04T00:26:39;9.57;;;3.97;;
24173;SDS011;12324;48.146;11.502;2023-06-04T00:29:06;9.25;;;3.97;;
24173;SDS011;12324;48.146;11.502;2023-06-04T00:31:34;10.35;;;3.88;;
24173;SDS011;12324;48.146;11.502;2023-06-04T00:34:03;5.88;;;3.22;;
24173;SDS011;12324;48.146;11.502;2023-06-04T00:36:31;8.65;;;3.65;;
24173;SDS011;12324;48.146;11.502;2023-06-04T00:38:58;9.13;;;3.42;;
24173;SDS011;12324;48.146;11.502;2023-06-04T00:41:25;7.88;;;3.25;;
24173;SDS011;12324;48.146;11.502;2023-06-04T00:43:52;9.02;;;3.20;;
24173;SDS011;12324;48.146;11.502;2023-06-04T00:46:24;7.88;;;3.85;;
24173;SDS011;12324;48.146;11.502;2023-06-04T00:48:53;6.68;;;3.13;;
24173;SDS011;12324;48.146;11.502;2023-06-04T00:51:20;6.05;;;3.10;;
24173;SDS011;12324;48.146;11.502;2023-06-04T00:53:51;7.88;;;3.45;;
24173;SDS011;12324;48.146;11.502;2023-06-04T00:56:18;7.20;;;2.95;;
24173;SDS011;12324;48.146;11.502;2023-06-04T00:58:46;7.40;;;3.13;;
24173;SDS011;12324;48.146;11.502;2023-06-04T01:01:22;6.70;;;2.85;;
24173;SDS011;12324;48.146;11.502;2023-06-04T01:03:51;6.13;;;2.78;;
24173;SDS011;12324;48.146;11.502;2023-06-04T01:08:49;6.88;;;2.88;;
24173;SDS011;12324;48.146;11.502;2023-06-04T01:11:33;7.60;;;3.38;;
24173;SDS011;12324;48.146;11.502;2023-06-04T01:14:01;8.00;;;3.15;;
24173;SDS011;12324;48.146;11.502;2023-06-04T01:16:30;7.00;;;2.70;;
24173;SDS011;12324;48.146;11.502;2023-06-04T01:19:00;7.03;;;2.70;;
24173;SDS011;12324;48.146;11.502;2023-06-04T01:21:29;6.30;;;2.97;;
24173;SDS011;12324;48.146;11.502;2023-06-04T01:23:56;7.70;;;2.95;;
24173;SDS011;12324;48.146;11.502;2023-06-04T01:26:27;7.30;;;3.00;;
24173;SDS011;12324;48.146;11.502;2023-06-04T01:28:56;10.55;;;3.40;;
24173;SDS011;12324;48.146;11.502;2023-06-04T01:31:23;11.35;;;3.75;;
24173;SDS011;12324;48.146;11.502;2023-06-04T01:33:52;7.25;;;3.13;;
24173;SDS011;12324;48.146;11.502;2023-06-04T01:36:20;4.30;;;2.60;;
24173;SDS011;12324;48.146;11.502;2023-06-04T01:38:47;7.13;;;3.20;;
24173;SDS011;12324;48.146;11.502;2023-06-04T01:41:14;6.10;;;3.25;;
24173;SDS011;12324;48.146;11.502;2023-06-04T01:43:41;6.35;;;3.28;;
24173;SDS011;12324;48.146;11.502;2023-06-04T01:46:08;6.45;;;2.97;;
24173;SDS011;12324;48.146;11.502;2023-06-04T01:48:36;10.43;;;3.95;;
24173;SDS011;12324;48.146;11.502;2023-06-04T01:51:03;7.10;;;2.90;;
24173;SDS011;12324;48.146;11.502;2023-06-04T01:53:32;8.18;;;3.10;;
24173;SDS011;12324;48.146;11.502;2023-06-04T01:55:59;6.63;;;3.25;;
24173;SDS011;12324;48.146;11.502;2023-06-04T01:58:27;8.07;;;3.55;;
24173;SDS011;12324;48.146;11.502;2023-06-04T02:00:55;6.45;;;3.22;;
24173;SDS011;12324;48.146;11.502;2023-06-04T02:03:29;8.95;;;4.10;;
24173;SDS011;12324;48.146;11.502;2023-06-04T02:06:03;8.10;;;3.15;;
24173;SDS011;12324;48.146;11.502;2023-06-04T02:08:34;8.15;;;3.42;;
24173;SDS011;12324;48.146;11.502;2023-06-04T02:11:02;7.38;;;2.80;;
24173;SDS011;12324;48.146;11.502;2023-06-04T02:13:29;7.50;;;3.10;;
24173;SDS011;12324;48.146;11.502;2023-06-04T02:15:56;6.35;;;3.10;;
24173;SDS011;12324;48.146;11.502;2023-06-04T02:18:23;6.72;;;3.05;;
24173;SDS011;12324;48.146;11.502;2023-06-04T02:20:51;6.95;;;2.85;;
24173;SDS011;12324;48.146;11.502;2023-06-04T02:23:18;9.38;;;3.35;;
24173;SDS011;12324;48.146;11.502;2023-06-04T02:25:46;6.53;;;3.22;;
24173;SDS011;12324;48.146;11.502;2023-06-04T02:28:15;8.00;;;3.58;;
24173;SDS011;12324;48.146;11.502;2023-06-04T02:30:43;12.23;;;4.20;;
24173;SDS011;12324;48.146;11.502;2023-06-04T02:33:11;10.48;;;3.70;;
24173;SDS011;12324;48.146;11.502;2023-06-04T02:35:38;7.80;;;3.60;;
24173;SDS011;12324;48.146;11.502;2023-06-04T02:38:05;8.60;;;3.58;;
24173;SDS011;12324;48.146;11.502;2023-06-04T02:40:33;9.25;;;3.95;;
24173;SDS011;12324;48.146;11.502;2023-06-04T02:43:00;7.68;;;3.47;;
24173;SDS011;12324;48.146;11.502;2023-06-04T02:45:27;10.25;;;3.95;;
24173;SDS011;12324;48.146;11.502;2023-06-04T02:47:55;8.30;;;3.75;;
24173;SDS011;12324;48.146;11.502;2023-06-04T02:50:22;7.40;;;3.50;;
24173;SDS011;12324;48.146;11.502;2023-06-04T02:52:49;8.13;;;3.25;;
24173;SDS011;12324;48.146;11.502;2023-06-04T02:55:16;9.18;;;3.30;;
24173;SDS011;12324;48.146;11.502;2023-06-04T02:57:43;10.20;;;4.22;;
24173;SDS011;12324;48.146;11.502;2023-06-04T03:00:11;9.32;;;3.97;;
24173;SDS011;12324;48.146;11.502;2023-06-04T03:02:42;8.60;;;3.63;;
24173;SDS011;12324;48.146;11.502;2023-06-04T03:05:11;9.48;;;3.63;;
24173;SDS011;12324;48.146;11.502;2023-06-04T03:07:39;9.15;;;3.88;;
24173;SDS011;12324;48.146;11.502;2023-06-04T03:10:09;9.70;;;3.63;;
24173;SDS011;12324;48.146;11.502;2023-06-04T03:12:37;7.18;;;3.28;;
24173;SDS011;12324;48.146;11.502;2023-06-04T03:15:04;11.60;;;4.70;;
24173;SDS011;12324;48.146;11.502;2023-06-04T03:17:31;9.27;;;3.63;;
24173;SDS011;12324;48.146;11.502;2023-06-04T03:19:58;10.85;;;3.85;;
24173;SDS011;12324;48.146;11.502;2023-06-04T03:22:25;7.88;;;3.20;;
24173;SDS011;12324;48.146;11.502;2023-06-04T03:24:52;11.77;;;4.30;;
24173;SDS011;12324;48.146;11.502;2023-06-04T03:27:18;10.25;;;4.00;;
24173;SDS011;12324;48.146;11.502;2023-06-04T03:29:46;10.98;;;3.88;;
24173;SDS011;12324;48.146;11.502;2023-06-04T03:32:14;8.45;;;4.13;;
24173;SDS011;12324;48.146;11.502;2023-06-04T03:34:42;9.50;;;3.47;;
24173;SDS011;12324;48.146;11.502;2023-06-04T03:37:09;6.88;;;3.47;;
24173;SDS011;12324;48.146;11.502;2023-06-04T03:39:36;11.90;;;4.60;;
24173;SDS011;12324;48.146;11.502;2023-06-04T03:42:03;12.82;;;4.38;;
24173;SDS011;12324;48.146;11.502;2023-06-04T03:44:31;9.60;;;3.92;;
24173;SDS011;12324;48.146;11.502;2023-06-04T03:46:57;7.63;;;3.60;;
24173;SDS011;12324;48.146;11.502;2023-06-04T03:49:24;8.20;;;3.28;;
24173;SDS011;12324;48.146;11.502;2023-06-04T03:51:51;11.13;;;4.57;;
24173;SDS011;12324;48.146;11.502;2023-06-04T03:54:18;9.02;;;4.38;;
24173;SDS011;12324;48.146;11.502;2023-06-04T03:56:45;10.65;;;3.78;;
24173;SDS011;12324;48.146;11.502;2023-06-04T03:59:12;9.88;;;4.55;;
24173;SDS011;12324;48.146;11.502;2023-06-04T04:01:39;12.32;;;4.75;;
24173;SDS011;12324;48.146;11.502;2023-06-04T04:04:06;13.43;;;5.65;;
24173;SDS011;12324;48.146;11.502;2023-06-04T04:06:33;10.82;;;3.97;;
24173;SDS011;12324;48.146;11.502;2023-06-04T04:09:00;11.40;;;4.68;;
24173;SDS011;12324;48.146;11.502;2023-06-04T04:11:26;12.30;;;4.70;;
24173;SDS011;12324;48.146;11.502;2023-06-04T04:13:53;13.68;;;5.10;;
24173;SDS011;12324;48.146;11.502;2023-06-04T04:16:20;13.43;;;5.75;;
24173;SDS011;12324;48.146;11.502;2023-06-04T04:18:47;12.77;;;4.78;;
24173;SDS011;12324;48.146;11.502;2023-06-04T04:21:13;12.68;;;4.97;;
24173;SDS011;12324;48.146;11.502;2023-06-04T04:23:40;12.07;;;4.57;;
24173;SDS011;12324;48.146;11.502;2023-06-04T04:26:07;11.95;;;4.88;;
24173;SDS011;12324;48.146;11.502;2023-06-04T04:28:36;11.43;;;4.28;;
24173;SDS011;12324;48.146;11.502;2023-06-04T04:31:03;10.90;;;4.95;;
24173;SDS011;12324;48.146;11.502;2023-06-04T04:33:30;10.63;;;4.57;;
24173;SDS011;12324;48.146;11.502;2023-06-04T04:35:58;10.27;;;4.25;;
24173;SDS011;12324;48.146;11.502;2023-06-04T04:38:28;8.75;;;4.47;;
24173;SDS011;12324;48.146;11.502;2023-06-04T04:40:57;9.65;;;4.57;;
24173;SDS011;12324;48.146;11.502;2023-06-04T04:43:33;11.90;;;4.40;;
24173;SDS011;12324;48.146;11.502;2023-06-04T04:46:01;8.27;;;3.67;;
24173;SDS011;12324;48.146;11.502;2023-06-04T04:48:30;9.43;;;4.20;;
24173;SDS011;12324;48.146;11.502;2023-06-04T04:50:58;8.35;;;3.67;;
24173;SDS011;12324;48.146;11.502;2023-06-04T04:53:25;8.23;;;3.72;;
24173;SDS011;12324;48.146;11.502;2023-06-04T04:55:53;6.85;;;3.08;;
24173;SDS011;12324;48.146;11.502;2023-06-04T04:58:21;9.40;;;3.53;;
24173;SDS011;12324;48.146;11.502;2023-06-04T05:00:48;9.07;;;3.80;;
24173;SDS011;12324;48.146;11.502;2023-06-04T05:03:15;7.93;;;3.45;;
24173;SDS011;12324;48.146;11.502;2023-06-04T05:05:42;7.00;;;3.17;;
24173;SDS011;12324;48.146;11.502;2023-06-04T05:08:09;8.30;;;3.33;;
24173;SDS011;12324;48.146;11.502;2023-06-04T05:10:37;8.85;;;3.55;;
24173;SDS011;12324;48.146;11.502;2023-06-04T05:13:04;6.22;;;3.42;;
24173;SDS011;12324;48.146;11.502;2023-06-04T05:15:32;6.13;;;3.13;;
24173;SDS011;12324;48.146;11.502;2023-06-04T05:17:59;5.75;;;3.00;;
24173;SDS011;12324;48.146;11.502;2023-06-04T05:20:28;14.65;;;3.92;;
24173;SDS011;12324;48.146;11.502;2023-06-04T05:22:55;7.60;;;2.72;;
24173;SDS011;12324;48.146;11.502;2023-06-04T05:25:22;8.48;;;3.17;;
24173;SDS011;12324;48.146;11.502;2023-06-04T05:27:50;8.27;;;3.50;;
24173;SDS011;12324;48.146;11.502;2023-06-04T05:30:17;6.47;;;2.75;;
24173;SDS011;12324;48.146;11.502;2023-06-04T05:32:44;6.85;;;2.88;;
24173;SDS011;12324;48.146;11.502;2023-06-04T05:35:11;8.80;;;3.42;;
24173;SDS011;12324;48.146;11.502;2023-06-04T05:37:38;10.48;;;3.75;;
24173;SDS011;12324;48.146;11.502;2023-06-04T05:40:08;8.80;;;3.30;;
24173;SDS011;12324;48.146;11.502;2023-06-04T05:42:36;5.00;;;2.60;;
24173;SDS011;12324;48.146;11.502;2023-06-04T05:45:04;9.57;;;3.53;;
24173;SDS011;12324;48.146;11.502;2023-06-04T05:47:34;6.75;;;3.28;;
24173;SDS011;12324;48.146;11.502;2023-06-04T05:50:01;8.32;;;3.03;;
24173;SDS011;12324;48.146;11.502;2023-06-04T05:52:28;6.47;;;3.10;;
24173;SDS011;12324;48.146;11.502;2023-06-04T05:54:56;6.32;;;2.97;;
24173;SDS011;12324;48.146;11.502;2023-06-04T05:57:23;9.80;;;3.33;;
24173;SDS011;12324;48.146;11.502;2023-06-04T05:59:49;6.07;;;2.88;;
24173;SDS011;12324;48.146;11.502;2023-06-04T06:02:16;6.53;;;2.78;;
24173;SDS011;12324;48.146;11.502;2023-06-04T06:04:43;6.45;;;2.65;;
24173;SDS011;12324;48.146;11.502;2023-06-04T06:07:10;9.00;;;4.00;;
24173;SDS011;12324;48.146;11.502;2023-06-04T06:09:38;6.60;;;2.92;;
24173;SDS011;12324;48.146;11.502;2023-06-04T06:12:05;6.47;;;2.75;;
24173;SDS011;12324;48.146;11.502;2023-06-04T06:14:32;6.85;;;2.58;;
24173;SDS011;12324;48.146;11.502;2023-06-04T06:16:59;6.80;;;3.20;;
24173;SDS011;12324;48.146;11.502;2023-06-04T06:19:29;6.25;;;3.00;;
24173;SDS011;12324;48.146;11.502;2023-06-04T06:21:56;5.80;;;2.97;;
24173;SDS011;12324;48.146;11.502;2023-06-04T06:24:25;7.32;;;3.17;;
24173;SDS011;12324;48.146;11.502;2023-06-04T06:26:52;7.20;;;3.10;;
24173;SDS011;12324;48.146;11.502;2023-06-04T06:29:19;9.45;;;3.35;;
24173;SDS011;12324;48.146;11.502;2023-06-04T06:31:47;10.98;;;2.92;;
24173;SDS011;12324;48.146;11.502;2023-06-04T06:34:14;8.40;;;2.85;;
24173;SDS011;12324;48.146;11.502;2023-06-04T06:36:41;6.10;;;3.22;;
24173;SDS011;12324;48.146;11.502;2023-06-04T06:39:08;6.50;;;3.30;;
24173;SDS011;12324;48.146;11.502;2023-06-04T06:41:35;6.32;;;3.03;;
24173;SDS011;12324;48.146;11.502;2023-06-04T06:44:05;9.05;;;3.50;;
24173;SDS011;12324;48.146;11.502;2023-06-04T06:46:32;8.40;;;3.17;;
24173;SDS011;12324;48.146;11.502;2023-06-04T06:48:59;6.88;;;2.90;;
24173;SDS011;12324;48.146;11.502;2023-06-04T06:51:26;8.18;;;3.70;;
24173;SDS011;12324;48.146;11.502;2023-06-04T06:53:53;6.15;;;3.03;;
24173;SDS011;12324;48.146;11.502;2023-06-04T06:56:19;5.30;;;2.90;;
24173;SDS011;12324;48.146;11.502;2023-06-04T06:58:47;6.10;;;2.92;;
24173;SDS011;12324;48.146;11.502;2023-06-04T07:01:14;7.47;;;2.63;;
24173;SDS011;12324;48.146;11.502;2023-06-04T07:03:41;7.55;;;3.53;;
24173;SDS011;12324;48.146;11.502;2023-06-04T07:06:09;9.38;;;3.00;;
24173;SDS011;12324;48.146;11.502;2023-06-04T07:08:36;10.02;;;3.60;;
24173;SDS011;12324;48.146;11.502;2023-06-04T07:11:03;4.70;;;2.65;;
24173;SDS011;12324;48.146;11.502;2023-06-04T07:13:30;6.20;;;3.00;;
24173;SDS011;12324;48.146;11.502;2023-06-04T07:16:01;7.40;;;3.38;;
24173;SDS011;12324;48.146;11.502;2023-06-04T07:18:29;5.68;;;2.72;;
24173;SDS011;12324;48.146;11.502;2023-06-04T07:20:56;6.88;;;2.70;;
24173;SDS011;12324;48.146;11.502;2023-06-04T07:23:23;5.47;;;2.28;;
24173;SDS011;12324;48.146;11.502;2023-06-04T07:25:51;7.13;;;3.33;;
24173;SDS011;12324;48.146;11.502;2023-06-04T07:28:18;7.70;;;3.15;;
24173;SDS011;12324;48.146;11.502;2023-06-04T07:30:45;11.13;;;3.13;;
24173;SDS011;12324;48.146;11.502;2023-06-04T07:33:12;7.35;;;3.22;;
24173;SDS011;12324;48.146;11.502;2023-06-04T07:35:40;6.63;;;3.03;;
24173;SDS011;12324;48.146;11.502;2023-06-04T07:38:07;7.05;;;2.80;;
24173;SDS011;12324;48.146;11.502;2023-06-04T07:40:35;7.68;;;3.30;;
24173;SDS011;12324;48.146;11.502;2023-06-04T07:43:02;9.13;;;3.53;;
24173;SDS011;12324;48.146;11.502;2023-06-04T07:45:29;7.53;;;3.30;;
24173;SDS011;12324;48.146;11.502;2023-06-04T07:48:01;6.68;;;3.10;;
24173;SDS011;12324;48.146;11.502;2023-06-04T07:50:28;8.18;;;3.17;;
24173;SDS011;12324;48.146;11.502;2023-06-04T07:52:57;9.35;;;3.55;;
24173;SDS011;12324;48.146;11.502;2023-06-04T07:55:24;7.00;;;3.40;;
24173;SDS011;12324;48.146;11.502;2023-06-04T07:57:51;7.78;;;3.42;;
24173;SDS011;12324;48.146;11.502;2023-06-04T08:00:17;8.68;;;3.70;;
24173;SDS011;12324;48.146;11.502;2023-06-04T08:02:44;7.10;;;3.30;;
24173;SDS011;12324;48.146;11.502;2023-06-04T08:05:11;9.07;;;3.60;;
24173;SDS011;12324;48.146;11.502;2023-06-04T08:07:41;8.57;;;3.50;;
24173;SDS011;12324;48.146;11.502;2023-06-04T08:10:09;7.35;;;3.33;;
24173;SDS011;12324;48.146;11.502;2023-06-04T08:12:37;9.85;;;3.90;;
24173;SDS011;12324;48.146;11.502;2023-06-04T08:15:04;7.97;;;3.63;;
24173;SDS011;12324;48.146;11.502;2023-06-04T08:17:31;12.82;;;3.80;;
24173;SDS011;12324;48.146;11.502;2023-06-04T08:19:59;8.32;;;3.40;;
24173;SDS011;12324;48.146;11.502;2023-06-04T08:22:26;7.25;;;3.38;;
24173;SDS011;12324;48.146;11.502;2023-06-04T08:24:55;8.45;;;3.42;;
24173;SDS011;12324;48.146;11.502;2023-06-04T08:27:22;9.00;;;3.35;;
24173;SDS011;12324;48.146;11.502;2023-06-04T08:29:49;7.72;;;3.35;;
24173;SDS011;12324;48.146;11.502;2023-06-04T08:32:18;8.02;;;3.30;;
24173;SDS011;12324;48.146;11.502;2023-06-04T08:34:45;9.60;;;3.60;;
24173;SDS011;12324;48.146;11.502;2023-06-04T08:37:12;8.13;;;3.20;;
24173;SDS011;12324;48.146;11.502;2023-06-04T08:39:39;8.25;;;3.08;;
24173;SDS011;12324;48.146;11.502;2023-06-04T08:42:07;8.38;;;3.30;;
24173;SDS011;12324;48.146;11.502;2023-06-04T08:44:36;7.88;;;3.50;;
24173;SDS011;12324;48.146;11.502;2023-06-04T08:47:05;7.13;;;3.33;;
24173;SDS011;12324;48.146;11.502;2023-06-04T08:49:35;5.50;;;3.35;;
24173;SDS011;12324;48.146;11.502;2023-06-04T08:52:03;7.85;;;3.63;;
24173;SDS011;12324;48.146;11.502;2023-06-04T08:54:32;7.55;;;3.25;;
24173;SDS011;12324;48.146;11.502;2023-06-04T08:57:00;8.27;;;3.08;;
24173;SDS011;12324;48.146;11.502;2023-06-04T08:59:28;6.05;;;2.55;;
24173;SDS011;12324;48.146;11.502;2023-06-04T09:01:55;6.90;;;3.17;;
24173;SDS011;12324;48.146;11.502;2023-06-04T09:04:23;6.95;;;3.28;;
24173;SDS011;12324;48.146;11.502;2023-06-04T09:06:51;5.25;;;2.40;;
24173;SDS011;12324;48.146;11.502;2023-06-04T09:09:19;5.72;;;2.70;;
24173;SDS011;12324;48.146;11.502;2023-06-04T09:11:49;8.50;;;3.10;;
24173;SDS011;12324;48.146;11.502;2023-06-04T09:14:18;4.70;;;2.47;;
24173;SDS011;12324;48.146;11.502;2023-06-04T09:16:47;8.45;;;2.92;;
24173;SDS011;12324;48.146;11.502;2023-06-04T09:19:15;9.60;;;2.78;;
24173;SDS011;12324;48.146;11.502;2023-06-04T09:21:55;6.20;;;2.67;;
24173;SDS011;12324;48.146;11.502;2023-06-04T09:24:23;6.47;;;2.80;;
24173;SDS011;12324;48.146;11.502;2023-06-04T09:26:51;9.93;;;3.47;;
24173;SDS011;12324;48.146;11.502;2023-06-04T09:29:19;6.25;;;2.85;;
24173;SDS011;12324;48.146;11.502;2023-06-04T09:31:58;7.35;;;2.78;;
24173;SDS011;12324;48.146;11.502;2023-06-04T09:34:28;7.18;;;2.90;;
24173;SDS011;12324;48.146;11.502;2023-06-04T09:36:57;6.75;;;2.92;;
24173;SDS011;12324;48.146;11.502;2023-06-04T09:39:25;7.65;;;3.17;;
24173;SDS011;12324;48.146;11.502;2023-06-04T09:41:59;8.48;;;3.22;;
24173;SDS011;12324;48.146;11.502;2023-06-04T09:46:55;9.15;;;3.30;;
24173;SDS011;12324;48.146;11.502;2023-06-04T09:49:22;5.60;;;2.67;;
24173;SDS011;12324;48.146;11.502;2023-06-04T09:51:49;7.00;;;2.92;;
24173;SDS011;12324;48.146;11.502;2023-06-04T09:54:17;7.63;;;3.00;;
24173;SDS011;12324;48.146;11.502;2023-06-04T09:56:44;6.75;;;3.53;;
24173;SDS011;12324;48.146;11.502;2023-06-04T09:59:11;5.30;;;2.53;;
24173;SDS011;12324;48.146;11.502;2023-06-04T10:01:40;7.15;;;3.00;;
24173;SDS011;12324;48.146;11.502;2023-06-04T10:04:10;5.70;;;2.83;;
24173;SDS011;12324;48.146;11.502;2023-06-04T10:06:40;5.93;;;2.42;;
24173;SDS011;12324;48.146;11.502;2023-06-04T10:09:08;7.60;;;3.25;;
24173;SDS011;12324;48.146;11.502;2023-06-04T10:11:54;6.97;;;3.20;;
24173;SDS011;12324;48.146;11.502;2023-06-04T10:14:22;7.32;;;3.17;;
24173;SDS011;12324;48.146;11.502;2023-06-04T10:16:50;5.68;;;3.00;;
24173;SDS011;12324;48.146;11.502;2023-06-04T10:19:18;6.97;;;3.20;;
24173;SDS011;12324;48.146;11.502;2023-06-04T10:21:46;7.28;;;2.95;;
24173;SDS011;12324;48.146;11.502;2023-06-04T10:24:13;9.10;;;3.08;;
24173;SDS011;12324;48.146;11.502;2023-06-04T10:26:41;5.65;;;3.05;;
24173;SDS011;12324;48.146;11.502;2023-06-04T10:29:11;8.27;;;3.03;;
24173;SDS011;12324;48.146;11.502;2023-06-04T10:31:39;4.63;;;2.72;;
24173;SDS011;12324;48.146;11.502;2023-06-04T10:34:07;8.82;;;4.00;;
24173;SDS011;12324;48.146;11.502;2023-06-04T10:36:42;6.50;;;2.78;;
24173;SDS011;12324;48.146;11.502;2023-06-04T10:39:09;6.80;;;2.83;;
24173;SDS011;12324;48.146;11.502;2023-06-04T10:41:37;6.55;;;3.00;;
24173;SDS011;12324;48.146;11.502;2023-06-04T10:44:04;7.28;;;3.05;;
24173;SDS011;12324;48.146;11.502;2023-06-04T10:46:38;5.63;;;3.03;;
24173;SDS011;12324;48.146;11.502;2023-06-04T10:49:09;6.68;;;2.47;;
24173;SDS011;12324;48.146;11.502;2023-06-04T10:51:41;8.32;;;3.13;;
24173;SDS011;12324;48.146;11.502;2023-06-04T10:54:09;5.65;;;2.80;;
24173;SDS011;12324;48.146;11.502;2023-06-04T10:56:37;7.15;;;3.05;;
24173;SDS011;12324;48.146;11.502;2023-06-04T10:59:14;5.97;;;2.97;;
24173;SDS011;12324;48.146;11.502;2023-06-04T11:01:41;12.57;;;3.20;;
24173;SDS011;12324;48.146;11.502;2023-06-04T11:04:24;5.95;;;2.65;;
24173;SDS011;12324;48.146;11.502;2023-06-04T11:07:05;8.38;;;3.33;;
24173;SDS011;12324;48.146;11.502;2023-06-04T11:09:37;7.20;;;2.67;;
24173;SDS011;12324;48.146;11.502;2023-06-04T11:12:04;6.65;;;2.97;;
24173;SDS011;12324;48.146;11.502;2023-06-04T11:14:32;6.40;;;3.05;;
24173;SDS011;12324;48.146;11.502;2023-06-04T11:17:09;4.57;;;2.78;;
24173;SDS011;12324;48.146;11.502;2023-06-04T11:19:37;7.28;;;3.03;;
24173;SDS011;12324;48.146;11.502;2023-06-04T11:22:05;7.47;;;2.92;;
24173;SDS011;12324;48.146;11.502;2023-06-04T11:24:32;6.05;;;2.53;;
24173;SDS011;12324;48.146;11.502;2023-06-04T11:26:59;6.72;;;2.80;;
24173;SDS011;12324;48.146;11.502;2023-06-04T11:29:42;6.03;;;2.90;;
24173;SDS011;12324;48.146;11.502;2023-06-04T11:32:10;5.45;;;3.03;;
24173;SDS011;12324;48.146;11.502;2023-06-04T11:34:47;7.75;;;3.40;;
24173;SDS011;12324;48.146;11.502;2023-06-04T11:37:14;7.68;;;2.83;;
24173;SDS011;12324;48.146;11.502;2023-06-04T11:39:41;6.80;;;3.17;;
24173;SDS011;12324;48.146;11.502;2023-06-04T11:42:10;5.68;;;2.78;;
24173;SDS011;12324;48.146;11.502;2023-06-04T11:44:37;6.20;;;2.90;;
24173;SDS011;12324;48.146;11.502;2023-06-04T11:47:06;9.43;;;3.08;;
24173;SDS011;12324;48.146;11.502;2023-06-04T11:49:34;7.97;;;3.45;;
24173;SDS011;12324;48.146;11.502;2023-06-04T11:52:03;7.70;;;3.20;;
24173;SDS011;12324;48.146;11.502;2023-06-04T11:54:31;5.55;;;2.97;;
24173;SDS011;12324;48.146;11.502;2023-06-04T11:57:04;7.07;;;3.33;;
24173;SDS011;12324;48.146;11.502;2023-06-04T11:59:31;6.55;;;3.47;;
24173;SDS011;12324;48.146;11.502;2023-06-04T12:01:59;5.38;;;2.75;;
24173;SDS011;12324;48.146;11.502;2023-06-04T12:04:29;5.40;;;2.83;;
24173;SDS011;12324;48.146;11.502;2023-06-04T12:06:57;6.88;;;3.10;;
24173;SDS011;12324;48.146;11.502;2023-06-04T12:09:28;6.88;;;2.95;;
24173;SDS011;12324;48.146;11.502;2023-06-04T12:12:01;6.97;;;2.97;;
24173;SDS011;12324;48.146;11.502;2023-06-04T12:14:29;7.38;;;3.13;;
24173;SDS011;12324;48.146;11.502;2023-06-04T12:16:57;7.47;;;3.00;;
24173;SDS011;12324;48.146;11.502;2023-06-04T12:19:25;5.57;;;2.95;;
24173;SDS011;12324;48.146;11.502;2023-06-04T12:21:59;8.27;;;3.40;;
24173;SDS011;12324;48.146;11.502;2023-06-04T12:24:28;6.72;;;3.17;;
24173;SDS011;12324;48.146;11.502;2023-06-04T12:27:05;7.53;;;3.20;;
24173;SDS011;12324;48.146;11.502;2023-06-04T12:29:34;5.28;;;2.88;;
24173;SDS011;12324;48.146;11.502;2023-06-04T12:32:02;9.07;;;3.47;;
24173;SDS011;12324;48.146;11.502;2023-06-04T12:34:31;4.82;;;3.03;;
24173;SDS011;12324;48.146;11.502;2023-06-04T12:36:58;6.50;;;2.90;;
24173;SDS011;12324;48.146;11.502;2023-06-04T12:39:25;6.55;;;3.03;;
24173;SDS011;12324;48.146;11.502;2023-06-04T12:41:52;10.25;;;3.38;;
24173;SDS011;12324;48.146;11.502;2023-06-04T12:44:20;8.05;;;3.15;;
24173;SDS011;12324;48.146;11.502;2023-06-04T12:46:47;6.82;;;2.97;;
24173;SDS011;12324;48.146;11.502;2023-06-04T12:49:14;7.88;;;3.10;;
24173;SDS011;12324;48.146;11.502;2023-06-04T12:51:41;6.68;;;3.20;;
24173;SDS011;12324;48.146;11.502;2023-06-04T12:54:09;7.15;;;3.25;;
24173;SDS011;12324;48.146;11.502;2023-06-04T12:56:37;6.32;;;2.97;;
24173;SDS011;12324;48.146;11.502;2023-06-04T12:59:04;8.95;;;3.28;;
24173;SDS011;12324;48.146;11.502;2023-06-04T13:01:31;8.45;;;3.78;;
24173;SDS011;12324;48.146;11.502;2023-06-04T13:03:58;7.53;;;3.03;;
24173;SDS011;12324;48.146;11.502;2023-06-04T13:06:29;7.32;;;3.13;;
24173;SDS011;12324;48.146;11.502;2023-06-04T13:08:56;6.20;;;3.00;;
24173;SDS011;12324;48.146;11.502;2023-06-04T13:11:23;7.03;;;2.95;;
24173;SDS011;12324;48.146;11.502;2023-06-04T13:13:50;6.10;;;3.30;;
24173;SDS011;12324;48.146;11.502;2023-06-04T13:16:17;6.97;;;3.30;;
24173;SDS011;12324;48.146;11.502;2023-06-04T13:18:45;7.15;;;3.55;;
24173;SDS011;12324;48.146;11.502;2023-06-04T13:21:12;9.70;;;3.63;;
24173;SDS011;12324;48.146;11.502;2023-06-04T13:23:39;6.95;;;3.28;;
24173;SDS011;12324;48.146;11.502;2023-06-04T13:26:16;8.52;;;3.35;;
24173;SDS011;12324;48.146;11.502;2023-06-04T13:28:43;6.97;;;3.45;;
24173;SDS011;12324;48.146;11.502;2023-06-04T13:31:10;9.45;;;3.50;;
24173;SDS011;12324;48.146;11.502;2023-06-04T13:33:38;6.82;;;3.05;;
24173;SDS011;12324;48.146;11.502;2023-06-04T13:36:05;6.20;;;3.35;;
24173;SDS011;12324;48.146;11.502;2023-06-04T13:38:32;9.60;;;2.78;;
24173;SDS011;12324;48.146;11.502;2023-06-04T13:41:00;5.20;;;2.72;;
24173;SDS011;12324;48.146;11.502;2023-06-04T13:43:27;6.68;;;2.90;;
24173;SDS011;12324;48.146;11.502;2023-06-04T13:45:54;7.13;;;3.47;;
24173;SDS011;12324;48.146;11.502;2023-06-04T13:48:21;6.63;;;2.80;;
24173;SDS011;12324;48.146;11.502;2023-06-04T13:50:48;5.55;;;3.00;;
24173;SDS011;12324;48.146;11.502;2023-06-04T13:53:15;6.35;;;2.97;;
24173;SDS011;12324;48.146;11.502;2023-06-04T13:55:43;6.20;;;3.00;;
24173;SDS011;12324;48.146;11.502;2023-06-04T13:58:10;5.93;;;2.75;;
24173;SDS011;12324;48.146;11.502;2023-06-04T14:00:37;9.13;;;3.55;;
24173;SDS011;12324;48.146;11.502;2023-06-04T14:03:05;6.30;;;3.15;;
24173;SDS011;12324;48.146;11.502;2023-06-04T14:05:32;5.53;;;2.72;;
24173;SDS011;12324;48.146;11.502;2023-06-04T14:07:59;7.88;;;3.58;;
24173;SDS011;12324;48.146;11.502;2023-06-04T14:10:26;8.30;;;3.28;;
24173;SDS011;12324;48.146;11.502;2023-06-04T14:12:53;6.07;;;2.83;;
24173;SDS011;12324;48.146;11.502;2023-06-04T14:15:20;5.85;;;3.03;;
24173;SDS011;12324;48.146;11.502;2023-06-04T14:17:48;7.32;;;3.60;;
24173;SDS011;12324;48.146;11.502;2023-06-04T14:20:16;5.95;;;3.08;;
24173;SDS011;12324;48.146;11.502;2023-06-04T14:22:43;5.05;;;2.85;;
24173;SDS011;12324;48.146;11.502;2023-06-04T14:25:10;8.57;;;3.40;;
24173;SDS011;12324;48.146;11.502;2023-06-04T14:27:37;8.77;;;3.63;;
24173;SDS011;12324;48.146;11.502;2023-06-04T14:30:04;8.60;;;3.75;;
24173;SDS011;12324;48.146;11.502;2023-06-04T14:32:32;7.45;;;3.67;;
24173;SDS011;12324;48.146;11.502;2023-06-04T14:35:00;4.55;;;2.65;;
24173;SDS011;12324;48.146;11.502;2023-06-04T14:37:27;8.45;;;3.80;;
24173;SDS011;12324;48.146;11.502;2023-06-04T14:39:54;10.02;;;3.85;;
24173;SDS011;12324;48.146;11.502;2023-06-04T14:42:21;6.30;;;3.20;;
24173;SDS011;12324;48.146;11.502;2023-06-04T14:44:48;5.22;;;2.90;;